PWSweather.com
Personal Weather Stations
Station Observations
KPAMECHA5
Mechanicsburg, PA 17050

Mechanicsburg, PA 17050

Lat: 40.21531, Lon: -77.0395

Elevation: 430

Station Type: Davis 6322

http://MechanicsburgWeather.com

Latest ConditionsUpdated 4:00:07 AM EDT Monday, Sep 22, 2014
Currently Today's Max Today's Min Today's Average
Temperature 60.9°F16.1°C 65.6°F18.7°C 58.6°F14.8°C 62.4°F16.9°C
Dew Point 52.2°F11.2°C 59.1°F15.1°C 52.2°F11.2°C 54.9°F12.7°C
Winds 0.7 mph NW1.1 kmh NW 1.9 mph NNW3.1 kmh NNW - 0.5 mph 0.8 kmh
Wind Gusts 2.0 mph3.2 kmh 8.0 mph12.9 kmh - -
Humidity 73% 83% 72% 77%
Pressure 29.74 in1007.1 mb 29.74 in1007.1 mb 29.66 in1004.4 mb -
Hour Temp Dew Point Humidity Winds Wind Gusts Pressure Precip Precip Rate Daily Precip Total
04:00 AM 60.9°F16.1°C 52.2°F11.2°C 73% 0.7 mph NW1.1 kmh NW 2.0 mph3.2 kmh 29.74 in1007.1 mb 0.00 in0.0 mm 0.00 in/hr0.0 mm/hr 0.00 in0.0 mm
03:50 AM 60.2°F15.7°C 52.6°F11.4°C 76% 1.9 mph NNW3.1 kmh NNW 8.0 mph12.9 kmh 29.74 in1007.1 mb 0.00 in0.0 mm 0.00 in/hr0.0 mm/hr 0.00 in0.0 mm
03:40 AM 59.3°F15.2°C 53.5°F11.9°C 81% Calm Calm 1.0 mph1.6 kmh 29.73 in1006.8 mb 0.00 in0.0 mm 0.00 in/hr0.0 mm/hr 0.00 in0.0 mm
03:30 AM 59.0°F15.0°C 53.5°F11.9°C 82% 0.1 mph WNW0.2 kmh WNW 1.0 mph1.6 kmh 29.73 in1006.8 mb 0.00 in0.0 mm 0.00 in/hr0.0 mm/hr 0.00 in0.0 mm
03:20 AM 58.6°F14.8°C 53.5°F11.9°C 83% 0.1 mph WNW0.2 kmh WNW 1.0 mph1.6 kmh 29.73 in1006.8 mb 0.00 in0.0 mm 0.00 in/hr0.0 mm/hr 0.00 in0.0 mm
03:10 AM 59.0°F15.0°C 53.2°F11.8°C 81% Calm Calm -- 29.72 in1006.4 mb 0.00 in0.0 mm 0.00 in/hr0.0 mm/hr 0.00 in0.0 mm
03:00 AM 59.3°F15.2°C 52.8°F11.6°C 79% Calm Calm -- 29.72 in1006.4 mb 0.00 in0.0 mm 0.00 in/hr0.0 mm/hr 0.00 in0.0 mm
02:50 AM 59.9°F15.5°C 53.0°F11.7°C 78% Calm Calm -- 29.72 in1006.4 mb 0.00 in0.0 mm 0.00 in/hr0.0 mm/hr 0.00 in0.0 mm
02:40 AM 60.5°F15.8°C 53.2°F11.8°C 77% 0.1 mph WNW0.2 kmh WNW 3.0 mph4.8 kmh 29.72 in1006.4 mb 0.00 in0.0 mm 0.00 in/hr0.0 mm/hr 0.00 in0.0 mm
02:30 AM 61.1°F16.2°C 53.5°F11.9°C 76% Calm Calm -- 29.71 in1006.1 mb 0.00 in0.0 mm 0.00 in/hr0.0 mm/hr 0.00 in0.0 mm
02:20 AM 61.9°F16.6°C 53.5°F11.9°C 74% Calm Calm -- 29.71 in1006.1 mb 0.00 in0.0 mm 0.00 in/hr0.0 mm/hr 0.00 in0.0 mm
02:10 AM 62.7°F17.1°C 53.9°F12.2°C 73% Calm Calm -- 29.71 in1006.1 mb 0.00 in0.0 mm 0.00 in/hr0.0 mm/hr 0.00 in0.0 mm
02:00 AM 63.0°F17.2°C 53.8°F12.1°C 72% 1.0 mph WNW1.6 kmh WNW 2.0 mph3.2 kmh 29.71 in1006.1 mb 0.00 in0.0 mm 0.00 in/hr0.0 mm/hr 0.00 in0.0 mm
01:50 AM 62.9°F17.2°C 54.1°F12.3°C 73% 0.3 mph W0.5 kmh W 2.0 mph3.2 kmh 29.71 in1006.1 mb 0.00 in0.0 mm 0.00 in/hr0.0 mm/hr 0.00 in0.0 mm
01:40 AM 63.1°F17.3°C 54.3°F12.4°C 73% 0.7 mph W1.1 kmh W 5.0 mph8.0 kmh 29.70 in1005.8 mb 0.00 in0.0 mm 0.00 in/hr0.0 mm/hr 0.00 in0.0 mm
01:30 AM 63.6°F17.6°C 55.2°F12.9°C 74% Calm Calm 1.0 mph1.6 kmh 29.70 in1005.8 mb 0.00 in0.0 mm 0.00 in/hr0.0 mm/hr 0.00 in0.0 mm
01:20 AM 64.3°F17.9°C 55.4°F13.0°C 73% 0.1 mph W0.2 kmh W -- 29.70 in1005.8 mb 0.00 in0.0 mm 0.00 in/hr0.0 mm/hr 0.00 in0.0 mm
01:10 AM 64.5°F18.1°C 55.3°F12.9°C 72% 0.6 mph WSW1.0 kmh WSW 1.0 mph1.6 kmh 29.69 in1005.4 mb 0.00 in0.0 mm 0.00 in/hr0.0 mm/hr 0.00 in0.0 mm
01:00 AM 65.0°F18.3°C 57.3°F14.1°C 76% 0.3 mph SW0.5 kmh SW 2.0 mph3.2 kmh 29.69 in1005.4 mb 0.00 in0.0 mm 0.00 in/hr0.0 mm/hr 0.00 in0.0 mm
12:50 AM 65.6°F18.7°C 57.1°F13.9°C 74% 1.3 mph SW2.1 kmh SW 4.0 mph6.4 kmh 29.68 in1005.1 mb 0.00 in0.0 mm 0.00 in/hr0.0 mm/hr 0.00 in0.0 mm
12:40 AM 65.4°F18.6°C 57.3°F14.1°C 75% 1.1 mph WNW1.8 kmh WNW 1.0 mph1.6 kmh 29.68 in1005.1 mb 0.00 in0.0 mm 0.00 in/hr0.0 mm/hr 0.00 in0.0 mm
12:30 AM 65.4°F18.6°C 58.0°F14.4°C 77% 1.3 mph W2.1 kmh W 3.0 mph4.8 kmh 29.66 in1004.4 mb 0.00 in0.0 mm 0.00 in/hr0.0 mm/hr 0.00 in0.0 mm
12:20 AM 64.9°F18.3°C 58.3°F14.6°C 79% 0.6 mph NW1.0 kmh NW 2.0 mph3.2 kmh 29.66 in1004.4 mb 0.00 in0.0 mm 0.00 in/hr0.0 mm/hr 0.00 in0.0 mm
12:10 AM 64.9°F18.3°C 58.9°F14.9°C 81% 1.1 mph WNW1.8 kmh WNW 6.0 mph9.7 kmh 29.66 in1004.4 mb 0.00 in0.0 mm 0.00 in/hr0.0 mm/hr 0.00 in0.0 mm
12:00 AM 65.1°F18.4°C 59.1°F15.1°C 81% 0.5 mph SW0.8 kmh SW 1.0 mph1.6 kmh 29.66 in1004.4 mb 0.00 in0.0 mm 0.00 in/hr0.0 mm/hr 0.00 in0.0 mm